createdAt,value
2022-11-22T00:01:28.300Z,99407.00
2022-11-22T00:04:30.653Z,99400.88
2022-11-22T00:07:32.819Z,99396.12
2022-11-22T00:10:35.248Z,99390.72
2022-11-22T00:13:37.511Z,99396.56
2022-11-22T00:16:39.908Z,99398.91
2022-11-22T00:19:42.181Z,99401.28
2022-11-22T00:22:45.233Z,99413.22
2022-11-22T00:25:47.737Z,99409.72
2022-11-22T00:28:50.199Z,99413.66
2022-11-22T00:31:52.376Z,99400.78
2022-11-22T00:34:54.844Z,99405.19
2022-11-22T00:37:56.929Z,99401.69
2022-11-22T00:40:59.306Z,99402.38
2022-11-22T00:44:01.417Z,99401.06
2022-11-22T00:47:03.817Z,99390.38
2022-11-22T00:50:06.278Z,99384.81
2022-11-22T00:53:08.933Z,99389.91
2022-11-22T00:56:11.034Z,99395.00
2022-11-22T00:59:13.582Z,99389.38
2022-11-22T01:02:15.694Z,99393.72
2022-11-22T01:05:18.209Z,99395.31
2022-11-22T01:08:20.265Z,99399.37
2022-11-22T01:11:22.841Z,99394.19
2022-11-22T01:14:24.959Z,99401.44
2022-11-22T01:17:27.613Z,99403.28
2022-11-22T01:20:30.847Z,99403.50
2022-11-22T01:23:34.546Z,99406.37
2022-11-22T01:26:36.784Z,99393.28
2022-11-22T01:29:39.205Z,99384.25
2022-11-22T01:32:41.313Z,99382.00
2022-11-22T01:35:43.764Z,99373.19
2022-11-22T01:38:45.898Z,99378.06
2022-11-22T01:41:48.308Z,99379.38
2022-11-22T01:44:50.729Z,99379.56
2022-11-22T01:47:53.327Z,99381.16
2022-11-22T01:51:05.751Z,99383.53
2022-11-22T01:54:12.979Z,99389.69
2022-11-22T01:57:18.685Z,99380.31
2022-11-22T02:00:21.165Z,99379.56
2022-11-22T02:03:24.053Z,99376.31
2022-11-22T02:06:35.801Z,99376.03
2022-11-22T02:09:39.424Z,99368.03
2022-11-22T02:12:42.179Z,99366.97
2022-11-22T02:15:44.298Z,99366.44
2022-11-22T02:18:46.675Z,99363.03
2022-11-22T02:21:58.280Z,99359.81
2022-11-22T02:25:08.801Z,99363.28
2022-11-22T02:28:13.694Z,99364.97
2022-11-22T02:31:40.716Z,99359.97
2022-11-22T02:34:48.672Z,99358.00
2022-11-22T02:38:03.167Z,99351.94
2022-11-22T02:41:11.422Z,99345.53
2022-11-22T02:44:14.081Z,99338.13
2022-11-22T02:47:16.259Z,99344.41
2022-11-22T02:50:18.664Z,99347.16
2022-11-22T02:53:20.728Z,99352.66
2022-11-22T02:56:23.117Z,99353.19
2022-11-22T02:59:25.246Z,99350.50
2022-11-22T03:02:27.648Z,99353.69
2022-11-22T03:05:29.788Z,99350.16
2022-11-22T03:08:33.287Z,99352.50
2022-11-22T03:11:35.397Z,99354.66
2022-11-22T03:14:37.723Z,99344.66
2022-11-22T03:17:39.829Z,99344.78
2022-11-22T03:20:42.222Z,99337.16
2022-11-22T03:23:44.339Z,99341.19
2022-11-22T03:26:48.904Z,99332.72
2022-11-22T03:29:50.990Z,99339.34
2022-11-22T03:32:53.382Z,99338.59
2022-11-22T03:35:57.820Z,99338.75
2022-11-22T03:39:00.313Z,99343.19
2022-11-22T03:42:02.588Z,99336.22
2022-11-22T03:45:05.961Z,99339.69
2022-11-22T03:48:08.061Z,99328.22
2022-11-22T03:51:10.441Z,99328.22
2022-11-22T03:54:13.023Z,99329.53
2022-11-22T03:57:17.014Z,99320.72
2022-11-22T04:00:19.248Z,99325.00
2022-11-22T04:03:21.674Z,99321.22
2022-11-22T04:06:23.786Z,99322.44
2022-11-22T04:09:26.201Z,99322.97
2022-11-22T04:12:30.235Z,99326.56
2022-11-22T04:15:32.654Z,99324.50
2022-11-22T04:18:34.825Z,99331.31
2022-11-22T04:21:37.172Z,99324.41
2022-11-22T04:24:57.953Z,99333.84
2022-11-22T04:28:00.946Z,99326.91
2022-11-22T04:31:21.772Z,99327.63
2022-11-22T04:34:24.210Z,99326.88
2022-11-22T04:37:26.379Z,99328.75
2022-11-22T04:40:28.754Z,99315.97
2022-11-22T04:43:49.455Z,99317.63
2022-11-22T04:46:51.838Z,99315.78
2022-11-22T04:49:53.950Z,99316.59
2022-11-22T04:52:57.877Z,99318.62
2022-11-22T04:56:00.151Z,99317.66
2022-11-22T04:59:02.601Z,99310.97
2022-11-22T05:02:04.708Z,99323.19
2022-11-22T05:05:07.423Z,99334.00
2022-11-22T05:08:10.108Z,99341.44
2022-11-22T05:11:12.419Z,99338.75
2022-11-22T05:14:14.500Z,99335.88
2022-11-22T05:17:16.912Z,99341.16
2022-11-22T05:20:19.099Z,99334.53
2022-11-22T05:23:41.260Z,99341.34
2022-11-22T05:26:43.369Z,99321.97
2022-11-22T05:29:45.720Z,99326.75
2022-11-22T05:32:47.790Z,99340.13
2022-11-22T05:35:50.345Z,99345.47
2022-11-22T05:38:52.863Z,99345.06
2022-11-22T05:41:58.696Z,99341.88
2022-11-22T05:45:00.758Z,99333.81
2022-11-22T05:48:03.107Z,99333.56
2022-11-22T05:51:10.993Z,99322.06
2022-11-22T05:54:13.379Z,99328.56
2022-11-22T05:57:15.441Z,99345.94
2022-11-22T06:00:19.862Z,99346.63
2022-11-22T06:03:22.252Z,99342.03
2022-11-22T06:06:24.412Z,99353.59
2022-11-22T06:09:26.969Z,99367.59
2022-11-22T06:12:29.244Z,99366.00
2022-11-22T06:15:31.595Z,99368.31
2022-11-22T06:18:34.367Z,99368.87
2022-11-22T06:21:36.678Z,99360.13
2022-11-22T06:24:38.852Z,99371.19
2022-11-22T06:27:41.231Z,99368.47
2022-11-22T06:30:43.353Z,99377.41
2022-11-22T06:33:46.039Z,99375.66
2022-11-22T06:36:48.113Z,99362.56
2022-11-22T06:39:50.799Z,99355.75
2022-11-22T06:42:53.023Z,99358.97
2022-11-22T06:45:57.281Z,99370.88
2022-11-22T06:48:59.558Z,99375.19
2022-11-22T06:52:01.955Z,99363.81
2022-11-22T06:55:07.933Z,99367.25
2022-11-22T06:58:10.657Z,99372.06
2022-11-22T07:01:16.166Z,99372.56
2022-11-22T07:04:19.258Z,99367.19
2022-11-22T07:07:21.423Z,99370.31
2022-11-22T07:10:23.817Z,99372.94
2022-11-22T07:13:27.060Z,99371.25
2022-11-22T07:16:29.493Z,99356.25
2022-11-22T07:19:33.302Z,99376.78
2022-11-22T07:22:35.861Z,99375.63
2022-11-22T07:25:38.004Z,99370.75
2022-11-22T07:28:41.308Z,99369.41
2022-11-22T07:32:11.486Z,99364.56
2022-11-22T07:35:36.931Z,99364.84
2022-11-22T07:38:40.301Z,99372.06
2022-11-22T07:41:42.833Z,99385.72
2022-11-22T07:44:44.902Z,99371.81
2022-11-22T07:47:47.362Z,99388.19
2022-11-22T07:50:49.498Z,99370.53
2022-11-22T07:53:52.335Z,99374.50
2022-11-22T07:56:54.502Z,99376.03
2022-11-22T07:59:56.867Z,99376.50
2022-11-22T08:02:59.523Z,99366.25
2022-11-22T08:06:05.950Z,99364.66
2022-11-22T08:09:08.107Z,99370.91
2022-11-22T08:12:10.471Z,99362.84
2022-11-22T08:15:15.018Z,99349.38
2022-11-22T08:18:17.556Z,99359.53
2022-11-22T08:21:20.130Z,99364.38
2022-11-22T08:24:27.094Z,99356.25
2022-11-22T08:27:29.270Z,99355.72
2022-11-22T08:30:32.040Z,99346.78
2022-11-22T08:33:34.812Z,99351.53
2022-11-22T08:36:40.411Z,99343.50
2022-11-22T08:39:44.762Z,99356.72
2022-11-22T08:42:53.068Z,99350.00
2022-11-22T08:45:57.825Z,99357.53
2022-11-22T08:49:00.732Z,99367.38
2022-11-22T08:52:03.078Z,99347.22
2022-11-22T08:55:05.899Z,99358.81
2022-11-22T08:58:08.276Z,99352.41
2022-11-22T09:01:18.516Z,99352.63
2022-11-22T09:04:23.153Z,99350.16
2022-11-22T09:10:47.743Z,99345.91
2022-11-22T09:13:50.240Z,99352.03
2022-11-22T09:16:52.446Z,99348.00
2022-11-22T09:19:54.872Z,99340.69
2022-11-22T09:23:00.375Z,99338.44
2022-11-22T09:26:09.131Z,99336.97
2022-11-22T09:29:11.461Z,99337.31
2022-11-22T09:32:13.950Z,99332.56
2022-11-22T09:35:21.140Z,99324.50
2022-11-22T09:38:23.514Z,99321.44
2022-11-22T09:41:41.714Z,99310.97
2022-11-22T09:44:56.324Z,99313.03
2022-11-22T09:48:17.284Z,99306.44
2022-11-22T09:51:22.864Z,99301.78
2022-11-22T09:54:28.850Z,99295.41
2022-11-22T09:57:40.260Z,99290.88
2022-11-22T10:00:47.804Z,99285.69
2022-11-22T10:04:14.561Z,99275.00
2022-11-22T10:07:41.012Z,99272.81
2022-11-22T10:10:43.925Z,99277.94
2022-11-22T10:13:55.801Z,99270.59
2022-11-22T10:17:25.697Z,99262.25
2022-11-22T10:20:30.310Z,99263.72
2022-11-22T10:23:33.781Z,99258.66
2022-11-22T10:26:39.487Z,99258.91
2022-11-22T10:29:56.077Z,99253.34
2022-11-22T10:33:21.245Z,99249.50
2022-11-22T10:36:38.473Z,99242.34
2022-11-22T10:39:52.923Z,99245.87
2022-11-22T10:43:04.283Z,99234.97
2022-11-22T10:46:22.660Z,99232.03
2022-11-22T10:49:57.619Z,99225.47
2022-11-22T10:53:05.613Z,99214.31
2022-11-22T10:56:31.381Z,99212.59
2022-11-22T10:59:56.883Z,99211.38
2022-11-22T11:03:08.233Z,99201.16
2022-11-22T11:06:37.900Z,99203.31
2022-11-22T11:10:10.659Z,99190.19
2022-11-22T11:13:12.367Z,99175.78
2022-11-22T11:16:21.763Z,99176.66
2022-11-22T11:19:25.254Z,99165.84
2022-11-22T11:23:06.648Z,99166.69
2022-11-22T11:25:54.168Z,99169.87
2022-11-22T11:29:18.224Z,99163.41
2022-11-22T11:32:21.265Z,99154.75
2022-11-22T11:35:28.057Z,99144.84
2022-11-22T11:38:34.294Z,99140.75
2022-11-22T11:41:42.067Z,99136.97
2022-11-22T11:44:47.971Z,99133.81
2022-11-22T11:47:50.541Z,99130.00
2022-11-22T11:50:52.624Z,99125.41
2022-11-22T11:53:59.914Z,99123.06
2022-11-22T11:57:05.477Z,99117.69
2022-11-22T12:00:21.301Z,99121.16
2022-11-22T12:03:25.398Z,99112.97
2022-11-22T12:06:32.864Z,99105.06
2022-11-22T12:09:42.663Z,99099.03
2022-11-22T12:13:12.661Z,99098.09
2022-11-22T12:16:24.260Z,99088.44
2022-11-22T12:19:33.069Z,99080.69
2022-11-22T12:22:52.804Z,99077.22
2022-11-22T12:25:56.565Z,99073.47
2022-11-22T12:29:00.020Z,99064.75
2022-11-22T12:32:12.898Z,99069.50
2022-11-22T12:35:19.660Z,99069.94
2022-11-22T12:38:30.098Z,99064.75
2022-11-22T12:41:34.454Z,99057.19
2022-11-22T12:44:39.742Z,99063.00
2022-11-22T12:47:45.866Z,99048.94
2022-11-22T12:50:52.053Z,99050.19
2022-11-22T12:54:00.685Z,99058.69
2022-11-22T12:57:13.255Z,99048.59
2022-11-22T13:00:22.127Z,99050.50
2022-11-22T13:03:32.174Z,99035.00
2022-11-22T13:06:45.425Z,99041.78
2022-11-22T13:10:05.373Z,99043.31
2022-11-22T13:13:20.492Z,99038.13
2022-11-22T13:16:22.623Z,99030.88
2022-11-22T13:19:29.200Z,99036.09
2022-11-22T13:22:48.043Z,99039.50
2022-11-22T13:26:08.107Z,99048.50
2022-11-22T13:29:28.761Z,99050.41
2022-11-22T13:32:36.074Z,99050.97
2022-11-22T13:35:38.880Z,99045.56
2022-11-22T13:38:44.485Z,99043.38
2022-11-22T13:41:53.807Z,99046.94
2022-11-22T13:44:56.117Z,99038.88
2022-11-22T13:47:58.369Z,99035.25
2022-11-22T13:51:01.857Z,99032.72
2022-11-22T13:54:37.692Z,99032.72
2022-11-22T13:57:41.449Z,99034.22
2022-11-22T14:00:43.738Z,99022.41
2022-11-22T14:03:46.142Z,99025.22
2022-11-22T14:06:57.706Z,99019.56
2022-11-22T14:10:04.216Z,99024.66
2022-11-22T14:13:13.774Z,99023.94
2022-11-22T14:16:52.117Z,99020.16
2022-11-22T14:20:10.104Z,99023.91
2022-11-22T14:23:49.545Z,99028.13
2022-11-22T14:27:23.650Z,99034.75
2022-11-22T14:30:44.949Z,99032.97
2022-11-22T14:34:22.473Z,99034.75
2022-11-22T14:38:06.874Z,99028.66
2022-11-22T14:41:40.665Z,99026.47
2022-11-22T14:44:43.784Z,99027.69
2022-11-22T14:47:52.347Z,99036.22
2022-11-22T14:51:09.398Z,99029.09
2022-11-22T14:54:23.657Z,99030.56
2022-11-22T14:57:29.501Z,99023.13
2022-11-22T15:01:00.709Z,99031.31
2022-11-22T15:09:15.081Z,99021.38
2022-11-22T15:09:16.479Z,99027.53
2022-11-22T15:11:37.880Z,99028.47
2022-11-22T15:57:26.785Z,99021.59
2022-11-22T16:00:29.900Z,99015.06
2022-11-22T16:03:38.956Z,99015.22
2022-11-22T16:06:43.175Z,99021.66
2022-11-22T16:09:49.929Z,99013.78
2022-11-22T16:12:53.140Z,99016.31
2022-11-22T16:16:04.572Z,99012.66
2022-11-22T16:19:24.087Z,99017.41
2022-11-22T16:22:31.161Z,99013.03
2022-11-22T16:25:35.237Z,99007.12
2022-11-22T16:28:38.220Z,99005.22
2022-11-22T16:31:41.269Z,98995.72
2022-11-22T16:34:44.220Z,99004.13
2022-11-22T16:37:48.293Z,98995.91
2022-11-22T16:40:51.557Z,98999.28
2022-11-22T16:44:01.871Z,98994.87
2022-11-22T16:47:04.266Z,98996.59
2022-11-22T16:50:06.894Z,98990.62
2022-11-22T16:53:12.737Z,98993.13
2022-11-22T16:56:28.865Z,98988.19
2022-11-22T16:59:31.505Z,98991.81
2022-11-22T17:02:34.393Z,98982.22
2022-11-22T17:05:37.320Z,98988.56
2022-11-22T17:08:39.387Z,98984.47
2022-11-22T17:11:42.940Z,98979.31
2022-11-22T17:14:48.417Z,98988.06
2022-11-22T17:17:50.751Z,98978.19
2022-11-22T17:20:53.284Z,98971.94
2022-11-22T17:23:59.458Z,98970.50
2022-11-22T17:27:01.644Z,98953.00
2022-11-22T17:30:04.480Z,98956.00
2022-11-22T17:33:06.773Z,98958.22
2022-11-22T17:36:40.146Z,98977.09
2022-11-22T17:39:42.325Z,98980.63
2022-11-22T17:42:45.385Z,98984.09
2022-11-22T17:45:47.534Z,98979.81
2022-11-22T17:48:55.019Z,98982.03
2022-11-22T17:51:57.488Z,98972.31
2022-11-22T17:55:05.555Z,98965.69
2022-11-22T17:58:09.728Z,98972.00
2022-11-22T18:01:16.239Z,98969.63
2022-11-22T18:04:18.854Z,98974.09
2022-11-22T18:07:21.611Z,98968.22
2022-11-22T18:10:23.981Z,98972.97
2022-11-22T18:13:31.150Z,98966.16
2022-11-22T18:16:33.607Z,98967.59
2022-11-22T18:19:35.809Z,98960.69
2022-11-22T18:22:38.276Z,98957.22
2022-11-22T18:25:40.409Z,98951.63
2022-11-22T18:28:42.859Z,98961.91
2022-11-22T18:31:52.304Z,98950.41
2022-11-22T18:34:55.688Z,98950.72
2022-11-22T18:37:57.880Z,98951.28
2022-11-22T18:41:04.689Z,98940.91
2022-11-22T18:44:08.809Z,98941.06
2022-11-22T18:47:12.478Z,98934.41
2022-11-22T18:53:22.112Z,98931.38
2022-11-22T18:56:24.309Z,98928.22
2022-11-22T18:59:27.154Z,98917.81
2022-11-22T19:02:30.024Z,98913.44
2022-11-22T19:05:32.597Z,98897.50
2022-11-22T19:08:39.498Z,98894.56
2022-11-22T19:11:42.033Z,98890.13
2022-11-22T19:14:44.213Z,98890.09
2022-11-22T19:17:48.930Z,98887.72
2022-11-22T19:20:55.618Z,98876.84
2022-11-22T19:23:58.355Z,98876.69
2022-11-22T19:27:00.555Z,98879.59
2022-11-22T19:30:03.916Z,98880.19
2022-11-22T19:33:06.038Z,98878.28
2022-11-22T19:36:14.099Z,98872.44
2022-11-22T19:39:16.447Z,98876.84
2022-11-22T19:42:20.384Z,98869.38
2022-11-22T19:45:22.532Z,98870.38
2022-11-22T19:48:24.928Z,98858.94
2022-11-22T19:51:29.063Z,98862.88
2022-11-22T19:54:31.442Z,98853.91
2022-11-22T19:57:33.604Z,98851.03
2022-11-22T20:00:36.198Z,98849.81
2022-11-22T20:03:40.531Z,98845.09
2022-11-22T20:06:47.179Z,98846.97
2022-11-22T20:09:52.673Z,98846.22
2022-11-22T20:12:54.848Z,98851.81
2022-11-22T20:15:57.598Z,98853.25
2022-11-22T20:19:07.611Z,98852.25
2022-11-22T20:22:10.690Z,98854.69
2022-11-22T20:25:13.134Z,98848.75
2022-11-22T20:28:15.821Z,98857.13
2022-11-22T20:31:19.726Z,98853.03
2022-11-22T20:34:23.453Z,98849.34
2022-11-22T20:37:25.536Z,98846.66
2022-11-22T20:40:28.317Z,98848.03
2022-11-22T20:43:31.414Z,98845.50
2022-11-22T20:46:36.765Z,98857.63
2022-11-22T20:49:43.922Z,98848.81
2022-11-22T20:52:48.033Z,98842.72
2022-11-22T20:55:50.566Z,98848.38
2022-11-22T20:58:53.478Z,98849.06
2022-11-22T21:01:55.723Z,98849.22
2022-11-22T21:04:58.109Z,98843.56
2022-11-22T21:08:03.969Z,98844.53
2022-11-22T21:11:13.026Z,98847.66
2022-11-22T21:14:15.209Z,98847.22
2022-11-22T21:17:41.834Z,98846.91
2022-11-22T21:20:39.951Z,98849.78
2022-11-22T21:23:43.580Z,98860.16
2022-11-22T21:26:45.796Z,98857.97
2022-11-22T21:29:48.285Z,98859.78
2022-11-22T21:32:50.577Z,98857.59
2022-11-22T21:35:53.369Z,98853.38
2022-11-22T21:38:55.503Z,98853.19
2022-11-22T21:41:57.985Z,98858.72
2022-11-22T21:45:00.124Z,98863.44
2022-11-22T21:48:04.546Z,98855.44
2022-11-22T21:51:06.766Z,98855.50
2022-11-22T21:54:09.397Z,98848.41
2022-11-22T21:57:11.616Z,98846.03
2022-11-22T22:00:14.337Z,98849.38
2022-11-22T22:03:17.839Z,98846.19
2022-11-22T22:06:20.717Z,98847.34
2022-11-22T22:09:23.312Z,98849.84
2022-11-22T22:12:25.563Z,98835.81
2022-11-22T22:15:27.952Z,98837.56
2022-11-22T22:18:31.608Z,98838.03
2022-11-22T22:21:34.481Z,98839.78
2022-11-22T22:24:36.586Z,98837.34
2022-11-22T22:27:38.949Z,98839.91
2022-11-22T22:30:41.065Z,98842.25
2022-11-22T22:33:45.513Z,98844.59
2022-11-22T22:36:47.630Z,98842.03
2022-11-22T22:39:51.790Z,98842.37
2022-11-22T22:42:53.990Z,98847.25
2022-11-22T22:45:56.735Z,98843.59
2022-11-22T22:49:00.120Z,98843.59
2022-11-22T22:52:03.758Z,98835.34
2022-11-22T22:55:06.460Z,98832.63
2022-11-22T22:58:12.102Z,98839.50
2022-11-22T23:01:17.597Z,98839.16
2022-11-22T23:04:20.383Z,98846.31
2022-11-22T23:07:22.531Z,98845.81
2022-11-22T23:10:25.037Z,98829.59
2022-11-22T23:13:27.194Z,98838.03
2022-11-22T23:16:29.581Z,98839.16
2022-11-22T23:19:31.887Z,98842.28
2022-11-22T23:22:34.672Z,98837.69
2022-11-22T23:25:36.768Z,98833.84
2022-11-22T23:28:39.455Z,98835.56
2022-11-22T23:31:41.644Z,98834.50
2022-11-22T23:34:44.034Z,98838.91
2022-11-22T23:37:46.167Z,98854.59
2022-11-22T23:40:54.748Z,98836.97
2022-11-22T23:43:57.341Z,98834.75
2022-11-22T23:46:59.681Z,98835.56
2022-11-22T23:50:01.761Z,98829.47
2022-11-22T23:53:04.141Z,98824.41
2022-11-22T23:56:11.462Z,98817.00
2022-11-22T23:59:13.885Z,98812.28
